sensor_id;sensor_type;location;lat;lon;timestamp;P1;durP1;ratioP1;P2;durP2;ratioP2
65387;SDS011;51992;53.528;49.474;2022-07-23T00:01:15;2.15;;;1.95;;
65387;SDS011;51992;53.528;49.474;2022-07-23T00:03:41;2.15;;;1.95;;
65387;SDS011;51992;53.528;49.474;2022-07-23T00:06:06;3.90;;;2.00;;
65387;SDS011;51992;53.528;49.474;2022-07-23T00:08:32;6.03;;;2.00;;
65387;SDS011;51992;53.528;49.474;2022-07-23T00:10:58;3.40;;;1.90;;
65387;SDS011;51992;53.528;49.474;2022-07-23T00:13:24;2.50;;;1.67;;
65387;SDS011;51992;53.528;49.474;2022-07-23T00:15:49;6.68;;;1.83;;
65387;SDS011;51992;53.528;49.474;2022-07-23T00:18:15;4.93;;;1.88;;
65387;SDS011;51992;53.528;49.474;2022-07-23T00:20:41;2.05;;;1.80;;
65387;SDS011;51992;53.528;49.474;2022-07-23T00:23:06;3.97;;;2.10;;
65387;SDS011;51992;53.528;49.474;2022-07-23T00:25:32;4.40;;;2.42;;
65387;SDS011;51992;53.528;49.474;2022-07-23T00:27:58;4.90;;;2.03;;
65387;SDS011;51992;53.528;49.474;2022-07-23T00:30:24;2.10;;;1.60;;
65387;SDS011;51992;53.528;49.474;2022-07-23T00:32:51;4.07;;;2.47;;
65387;SDS011;51992;53.528;49.474;2022-07-23T00:35:20;1.70;;;1.60;;
65387;SDS011;51992;53.528;49.474;2022-07-23T00:37:46;4.38;;;2.38;;
65387;SDS011;51992;53.528;49.474;2022-07-23T00:40:12;4.88;;;2.30;;
65387;SDS011;51992;53.528;49.474;2022-07-23T00:42:38;2.50;;;1.90;;
65387;SDS011;51992;53.528;49.474;2022-07-23T00:45:03;3.65;;;1.95;;
65387;SDS011;51992;53.528;49.474;2022-07-23T00:47:29;3.55;;;1.90;;
65387;SDS011;51992;53.528;49.474;2022-07-23T00:49:55;2.83;;;1.73;;
65387;SDS011;51992;53.528;49.474;2022-07-23T00:52:21;2.55;;;2.00;;
65387;SDS011;51992;53.528;49.474;2022-07-23T00:54:47;2.30;;;1.88;;
65387;SDS011;51992;53.528;49.474;2022-07-23T00:57:13;1.80;;;1.70;;
65387;SDS011;51992;53.528;49.474;2022-07-23T00:59:39;4.63;;;2.20;;
65387;SDS011;51992;53.528;49.474;2022-07-23T01:02:05;4.25;;;1.88;;
65387;SDS011;51992;53.528;49.474;2022-07-23T01:04:31;2.30;;;2.10;;
65387;SDS011;51992;53.528;49.474;2022-07-23T01:06:57;3.67;;;2.28;;
65387;SDS011;51992;53.528;49.474;2022-07-23T01:09:22;2.20;;;2.10;;
65387;SDS011;51992;53.528;49.474;2022-07-23T01:11:48;3.60;;;2.13;;
65387;SDS011;51992;53.528;49.474;2022-07-23T01:14:16;5.72;;;2.20;;
65387;SDS011;51992;53.528;49.474;2022-07-23T01:16:43;2.90;;;2.13;;
65387;SDS011;51992;53.528;49.474;2022-07-23T01:19:09;2.60;;;2.40;;
65387;SDS011;51992;53.528;49.474;2022-07-23T01:21:36;3.67;;;2.17;;
65387;SDS011;51992;53.528;49.474;2022-07-23T01:24:02;5.10;;;2.60;;
65387;SDS011;51992;53.528;49.474;2022-07-23T01:26:28;7.00;;;3.00;;
65387;SDS011;51992;53.528;49.474;2022-07-23T01:28:53;5.25;;;2.20;;
65387;SDS011;51992;53.528;49.474;2022-07-23T01:31:19;3.83;;;2.45;;
65387;SDS011;51992;53.528;49.474;2022-07-23T01:33:45;7.03;;;2.80;;
65387;SDS011;51992;53.528;49.474;2022-07-23T01:36:11;3.80;;;2.83;;
65387;SDS011;51992;53.528;49.474;2022-07-23T01:38:36;5.13;;;2.60;;
65387;SDS011;51992;53.528;49.474;2022-07-23T01:41:02;2.70;;;2.33;;
65387;SDS011;51992;53.528;49.474;2022-07-23T01:43:28;3.28;;;2.38;;
65387;SDS011;51992;53.528;49.474;2022-07-23T01:45:54;6.80;;;2.30;;
65387;SDS011;51992;53.528;49.474;2022-07-23T01:48:22;4.97;;;2.53;;
65387;SDS011;51992;53.528;49.474;2022-07-23T01:50:48;3.05;;;2.38;;
65387;SDS011;51992;53.528;49.474;2022-07-23T01:53:14;6.03;;;2.83;;
65387;SDS011;51992;53.528;49.474;2022-07-23T01:55:40;4.75;;;3.13;;
65387;SDS011;51992;53.528;49.474;2022-07-23T01:58:06;4.75;;;2.80;;
65387;SDS011;51992;53.528;49.474;2022-07-23T02:00:32;3.35;;;3.03;;
65387;SDS011;51992;53.528;49.474;2022-07-23T02:02:57;4.68;;;2.90;;
65387;SDS011;51992;53.528;49.474;2022-07-23T02:05:24;4.53;;;3.25;;
65387;SDS011;51992;53.528;49.474;2022-07-23T02:07:50;3.58;;;3.10;;
65387;SDS011;51992;53.528;49.474;2022-07-23T02:10:16;6.32;;;3.17;;
65387;SDS011;51992;53.528;49.474;2022-07-23T02:12:41;9.98;;;3.00;;
65387;SDS011;51992;53.528;49.474;2022-07-23T02:15:07;6.07;;;3.03;;
65387;SDS011;51992;53.528;49.474;2022-07-23T02:17:33;5.82;;;3.10;;
65387;SDS011;51992;53.528;49.474;2022-07-23T02:19:59;5.10;;;2.95;;
65387;SDS011;51992;53.528;49.474;2022-07-23T02:22:25;7.82;;;3.22;;
65387;SDS011;51992;53.528;49.474;2022-07-23T02:24:50;4.60;;;2.92;;
65387;SDS011;51992;53.528;49.474;2022-07-23T02:27:16;5.32;;;3.15;;
65387;SDS011;51992;53.528;49.474;2022-07-23T02:29:42;3.13;;;2.92;;
65387;SDS011;51992;53.528;49.474;2022-07-23T02:32:07;7.78;;;2.95;;
65387;SDS011;51992;53.528;49.474;2022-07-23T02:34:33;7.97;;;3.20;;
65387;SDS011;51992;53.528;49.474;2022-07-23T02:36:59;7.10;;;3.60;;
65387;SDS011;51992;53.528;49.474;2022-07-23T02:39:24;5.93;;;3.47;;
65387;SDS011;51992;53.528;49.474;2022-07-23T02:41:50;4.47;;;2.90;;
65387;SDS011;51992;53.528;49.474;2022-07-23T02:44:16;5.97;;;3.17;;
65387;SDS011;51992;53.528;49.474;2022-07-23T02:46:42;6.70;;;3.00;;
65387;SDS011;51992;53.528;49.474;2022-07-23T02:49:07;4.90;;;2.80;;
65387;SDS011;51992;53.528;49.474;2022-07-23T02:51:33;4.32;;;2.90;;
65387;SDS011;51992;53.528;49.474;2022-07-23T02:53:59;5.40;;;2.70;;
65387;SDS011;51992;53.528;49.474;2022-07-23T02:56:25;5.18;;;2.78;;
65387;SDS011;51992;53.528;49.474;2022-07-23T02:58:50;3.92;;;3.00;;
65387;SDS011;51992;53.528;49.474;2022-07-23T03:01:16;4.80;;;2.85;;
65387;SDS011;51992;53.528;49.474;2022-07-23T03:03:42;5.45;;;3.20;;
65387;SDS011;51992;53.528;49.474;2022-07-23T03:06:08;7.68;;;3.63;;
65387;SDS011;51992;53.528;49.474;2022-07-23T03:08:33;7.68;;;3.67;;
65387;SDS011;51992;53.528;49.474;2022-07-23T03:10:59;7.38;;;3.50;;
65387;SDS011;51992;53.528;49.474;2022-07-23T03:13:25;4.20;;;2.85;;
65387;SDS011;51992;53.528;49.474;2022-07-23T03:15:51;7.72;;;3.35;;
65387;SDS011;51992;53.528;49.474;2022-07-23T03:18:17;6.03;;;3.00;;
65387;SDS011;51992;53.528;49.474;2022-07-23T03:20:42;4.70;;;3.13;;
65387;SDS011;51992;53.528;49.474;2022-07-23T03:23:08;3.67;;;3.10;;
65387;SDS011;51992;53.528;49.474;2022-07-23T03:25:34;7.18;;;3.22;;
65387;SDS011;51992;53.528;49.474;2022-07-23T03:28:00;12.80;;;3.85;;
65387;SDS011;51992;53.528;49.474;2022-07-23T03:30:25;11.32;;;3.70;;
65387;SDS011;51992;53.528;49.474;2022-07-23T03:32:51;17.85;;;4.55;;
65387;SDS011;51992;53.528;49.474;2022-07-23T03:35:17;15.98;;;4.60;;
65387;SDS011;51992;53.528;49.474;2022-07-23T03:37:42;11.77;;;3.78;;
65387;SDS011;51992;53.528;49.474;2022-07-23T03:40:08;9.88;;;3.97;;
65387;SDS011;51992;53.528;49.474;2022-07-23T03:42:34;12.98;;;4.07;;
65387;SDS011;51992;53.528;49.474;2022-07-23T03:45:02;14.43;;;5.80;;
65387;SDS011;51992;53.528;49.474;2022-07-23T03:47:28;9.88;;;4.43;;
65387;SDS011;51992;53.528;49.474;2022-07-23T03:49:54;23.67;;;5.95;;
65387;SDS011;51992;53.528;49.474;2022-07-23T03:52:22;18.20;;;4.63;;
65387;SDS011;51992;53.528;49.474;2022-07-23T03:54:48;20.25;;;4.57;;
65387;SDS011;51992;53.528;49.474;2022-07-23T03:57:14;10.55;;;4.40;;
65387;SDS011;51992;53.528;49.474;2022-07-23T03:59:40;6.50;;;4.10;;
65387;SDS011;51992;53.528;49.474;2022-07-23T04:02:05;9.35;;;4.18;;
65387;SDS011;51992;53.528;49.474;2022-07-23T04:04:31;14.77;;;4.28;;
65387;SDS011;51992;53.528;49.474;2022-07-23T04:06:57;9.90;;;3.83;;
65387;SDS011;51992;53.528;49.474;2022-07-23T04:09:22;9.43;;;3.72;;
65387;SDS011;51992;53.528;49.474;2022-07-23T04:11:48;8.48;;;3.47;;
65387;SDS011;51992;53.528;49.474;2022-07-23T04:14:14;6.50;;;3.30;;
65387;SDS011;51992;53.528;49.474;2022-07-23T04:16:40;4.65;;;2.63;;
65387;SDS011;51992;53.528;49.474;2022-07-23T04:19:06;5.00;;;2.50;;
65387;SDS011;51992;53.528;49.474;2022-07-23T04:21:32;3.50;;;2.70;;
65387;SDS011;51992;53.528;49.474;2022-07-23T04:23:57;8.45;;;2.83;;
65387;SDS011;51992;53.528;49.474;2022-07-23T04:26:23;12.43;;;3.15;;
65387;SDS011;51992;53.528;49.474;2022-07-23T04:28:49;3.13;;;2.72;;
65387;SDS011;51992;53.528;49.474;2022-07-23T04:31:14;11.88;;;3.25;;
65387;SDS011;51992;53.528;49.474;2022-07-23T04:33:40;7.82;;;3.00;;
65387;SDS011;51992;53.528;49.474;2022-07-23T04:36:06;8.73;;;3.03;;
65387;SDS011;51992;53.528;49.474;2022-07-23T04:38:32;10.35;;;3.13;;
65387;SDS011;51992;53.528;49.474;2022-07-23T04:40:58;15.38;;;3.70;;
65387;SDS011;51992;53.528;49.474;2022-07-23T04:43:23;11.60;;;3.50;;
65387;SDS011;51992;53.528;49.474;2022-07-23T04:45:49;19.95;;;4.03;;
65387;SDS011;51992;53.528;49.474;2022-07-23T04:48:15;7.80;;;3.17;;
65387;SDS011;51992;53.528;49.474;2022-07-23T04:50:40;6.28;;;2.50;;
65387;SDS011;51992;53.528;49.474;2022-07-23T04:53:08;6.60;;;2.53;;
65387;SDS011;51992;53.528;49.474;2022-07-23T04:55:33;11.45;;;2.80;;
65387;SDS011;51992;53.528;49.474;2022-07-23T04:57:59;10.13;;;3.40;;
65387;SDS011;51992;53.528;49.474;2022-07-23T05:00:25;9.35;;;3.00;;
65387;SDS011;51992;53.528;49.474;2022-07-23T05:02:50;11.63;;;3.60;;
65387;SDS011;51992;53.528;49.474;2022-07-23T05:05:16;9.60;;;3.53;;
65387;SDS011;51992;53.528;49.474;2022-07-23T05:07:42;8.07;;;3.40;;
65387;SDS011;51992;53.528;49.474;2022-07-23T05:10:08;21.90;;;4.30;;
65387;SDS011;51992;53.528;49.474;2022-07-23T05:12:33;4.18;;;3.20;;
65387;SDS011;51992;53.528;49.474;2022-07-23T05:14:59;16.27;;;3.72;;
65387;SDS011;51992;53.528;49.474;2022-07-23T05:17:25;9.70;;;3.38;;
65387;SDS011;51992;53.528;49.474;2022-07-23T05:19:51;9.43;;;3.10;;
65387;SDS011;51992;53.528;49.474;2022-07-23T05:22:16;4.93;;;2.72;;
65387;SDS011;51992;53.528;49.474;2022-07-23T05:24:42;10.93;;;3.30;;
65387;SDS011;51992;53.528;49.474;2022-07-23T05:27:08;12.50;;;2.83;;
65387;SDS011;51992;53.528;49.474;2022-07-23T05:29:34;6.28;;;3.20;;
65387;SDS011;51992;53.528;49.474;2022-07-23T05:32:00;5.43;;;2.95;;
65387;SDS011;51992;53.528;49.474;2022-07-23T05:34:25;8.32;;;3.72;;
65387;SDS011;51992;53.528;49.474;2022-07-23T05:36:51;9.48;;;4.30;;
65387;SDS011;51992;53.528;49.474;2022-07-23T05:39:17;13.98;;;4.20;;
65387;SDS011;51992;53.528;49.474;2022-07-23T05:41:43;11.93;;;4.20;;
65387;SDS011;51992;53.528;49.474;2022-07-23T05:44:08;8.95;;;4.13;;
65387;SDS011;51992;53.528;49.474;2022-07-23T05:46:34;7.07;;;4.10;;
65387;SDS011;51992;53.528;49.474;2022-07-23T05:49:00;6.65;;;4.00;;
65387;SDS011;51992;53.528;49.474;2022-07-23T05:51:25;9.20;;;3.53;;
65387;SDS011;51992;53.528;49.474;2022-07-23T05:53:52;11.45;;;3.55;;
65387;SDS011;51992;53.528;49.474;2022-07-23T05:56:18;5.55;;;3.80;;
65387;SDS011;51992;53.528;49.474;2022-07-23T05:58:43;5.10;;;3.30;;
65387;SDS011;51992;53.528;49.474;2022-07-23T06:01:09;12.27;;;4.00;;
65387;SDS011;51992;53.528;49.474;2022-07-23T06:03:35;9.93;;;5.72;;
65387;SDS011;51992;53.528;49.474;2022-07-23T06:06:01;9.65;;;5.43;;
65387;SDS011;51992;53.528;49.474;2022-07-23T06:08:26;7.65;;;4.03;;
65387;SDS011;51992;53.528;49.474;2022-07-23T06:10:52;10.90;;;3.78;;
65387;SDS011;51992;53.528;49.474;2022-07-23T06:13:18;6.95;;;3.20;;
65387;SDS011;51992;53.528;49.474;2022-07-23T06:15:46;19.05;;;4.18;;
65387;SDS011;51992;53.528;49.474;2022-07-23T06:18:12;11.13;;;3.03;;
65387;SDS011;51992;53.528;49.474;2022-07-23T06:20:38;5.13;;;2.72;;
65387;SDS011;51992;53.528;49.474;2022-07-23T06:23:03;6.78;;;3.20;;
65387;SDS011;51992;53.528;49.474;2022-07-23T06:25:29;6.07;;;3.20;;
65387;SDS011;51992;53.528;49.474;2022-07-23T06:27:55;5.18;;;3.50;;
65387;SDS011;51992;53.528;49.474;2022-07-23T06:30:21;4.55;;;3.40;;
65387;SDS011;51992;53.528;49.474;2022-07-23T06:32:47;7.28;;;3.50;;
65387;SDS011;51992;53.528;49.474;2022-07-23T06:35:12;10.05;;;3.95;;
65387;SDS011;51992;53.528;49.474;2022-07-23T06:37:38;6.75;;;3.60;;
65387;SDS011;51992;53.528;49.474;2022-07-23T06:40:04;6.85;;;3.00;;
65387;SDS011;51992;53.528;49.474;2022-07-23T06:42:30;4.05;;;2.83;;
65387;SDS011;51992;53.528;49.474;2022-07-23T06:44:56;6.28;;;3.17;;
65387;SDS011;51992;53.528;49.474;2022-07-23T06:47:21;3.13;;;2.63;;
65387;SDS011;51992;53.528;49.474;2022-07-23T06:49:47;3.47;;;2.80;;
65387;SDS011;51992;53.528;49.474;2022-07-23T06:52:13;4.57;;;2.50;;
65387;SDS011;51992;53.528;49.474;2022-07-23T06:54:38;7.65;;;2.42;;
65387;SDS011;51992;53.528;49.474;2022-07-23T06:57:04;3.65;;;2.03;;
65387;SDS011;51992;53.528;49.474;2022-07-23T06:59:30;6.88;;;2.40;;
65387;SDS011;51992;53.528;49.474;2022-07-23T07:01:56;20.98;;;3.55;;
65387;SDS011;51992;53.528;49.474;2022-07-23T07:04:23;15.05;;;2.90;;
65387;SDS011;51992;53.528;49.474;2022-07-23T07:06:48;6.30;;;2.20;;
65387;SDS011;51992;53.528;49.474;2022-07-23T07:09:14;12.60;;;2.75;;
65387;SDS011;51992;53.528;49.474;2022-07-23T07:11:40;8.02;;;2.38;;
65387;SDS011;51992;53.528;49.474;2022-07-23T07:14:05;22.83;;;3.83;;
65387;SDS011;51992;53.528;49.474;2022-07-23T07:16:32;13.25;;;3.10;;
65387;SDS011;51992;53.528;49.474;2022-07-23T07:18:57;5.60;;;1.90;;
65387;SDS011;51992;53.528;49.474;2022-07-23T07:21:23;3.65;;;1.83;;
65387;SDS011;51992;53.528;49.474;2022-07-23T07:23:49;3.90;;;1.73;;
65387;SDS011;51992;53.528;49.474;2022-07-23T07:26:15;5.03;;;1.70;;
65387;SDS011;51992;53.528;49.474;2022-07-23T07:28:40;7.68;;;2.00;;
65387;SDS011;51992;53.528;49.474;2022-07-23T07:31:06;2.60;;;1.67;;
65387;SDS011;51992;53.528;49.474;2022-07-23T07:33:32;4.82;;;1.70;;
65387;SDS011;51992;53.528;49.474;2022-07-23T07:35:57;6.65;;;3.00;;
65387;SDS011;51992;53.528;49.474;2022-07-23T07:38:24;9.52;;;2.72;;
65387;SDS011;51992;53.528;49.474;2022-07-23T07:40:49;3.42;;;1.90;;
65387;SDS011;51992;53.528;49.474;2022-07-23T07:43:15;6.80;;;2.38;;
65387;SDS011;51992;53.528;49.474;2022-07-23T07:45:41;5.38;;;2.03;;
65387;SDS011;51992;53.528;49.474;2022-07-23T07:48:07;5.90;;;2.20;;
65387;SDS011;51992;53.528;49.474;2022-07-23T07:50:32;17.55;;;2.78;;
65387;SDS011;51992;53.528;49.474;2022-07-23T07:52:58;5.78;;;4.35;;
65387;SDS011;51992;53.528;49.474;2022-07-23T07:55:24;10.15;;;9.10;;
65387;SDS011;51992;53.528;49.474;2022-07-23T07:57:49;6.38;;;3.45;;
65387;SDS011;51992;53.528;49.474;2022-07-23T08:00:15;5.15;;;2.50;;
65387;SDS011;51992;53.528;49.474;2022-07-23T08:02:45;39.08;;;32.00;;
65387;SDS011;51992;53.528;49.474;2022-07-23T08:05:12;32.65;;;20.95;;
65387;SDS011;51992;53.528;49.474;2022-07-23T08:07:38;6.55;;;3.95;;
65387;SDS011;51992;53.528;49.474;2022-07-23T08:10:08;3.90;;;2.30;;
65387;SDS011;51992;53.528;49.474;2022-07-23T08:12:54;3.70;;;2.30;;
65387;SDS011;51992;53.528;49.474;2022-07-23T08:15:22;4.18;;;2.10;;
65387;SDS011;51992;53.528;49.474;2022-07-23T08:17:48;3.80;;;1.55;;
65387;SDS011;51992;53.528;49.474;2022-07-23T08:20:14;4.75;;;1.75;;
65387;SDS011;51992;53.528;49.474;2022-07-23T08:22:51;2.58;;;1.83;;
65387;SDS011;51992;53.528;49.474;2022-07-23T08:25:25;4.95;;;1.80;;
65387;SDS011;51992;53.528;49.474;2022-07-23T08:27:51;2.58;;;2.38;;
65387;SDS011;51992;53.528;49.474;2022-07-23T08:30:17;3.92;;;2.67;;
65387;SDS011;51992;53.528;49.474;2022-07-23T08:32:50;6.35;;;2.30;;
65387;SDS011;51992;53.528;49.474;2022-07-23T08:35:16;3.63;;;1.40;;
65387;SDS011;51992;53.528;49.474;2022-07-23T08:37:42;4.47;;;1.98;;
65387;SDS011;51992;53.528;49.474;2022-07-23T08:40:08;3.80;;;1.63;;
65387;SDS011;51992;53.528;49.474;2022-07-23T08:42:34;3.17;;;2.00;;
65387;SDS011;51992;53.528;49.474;2022-07-23T08:45:03;2.25;;;2.05;;
65387;SDS011;51992;53.528;49.474;2022-07-23T08:47:29;4.07;;;1.92;;
65387;SDS011;51992;53.528;49.474;2022-07-23T08:49:56;11.27;;;2.40;;
65387;SDS011;51992;53.528;49.474;2022-07-23T08:52:24;7.35;;;2.20;;
65387;SDS011;51992;53.528;49.474;2022-07-23T08:54:49;6.88;;;1.92;;
65387;SDS011;51992;53.528;49.474;2022-07-23T08:57:15;3.55;;;2.20;;
65387;SDS011;51992;53.528;49.474;2022-07-23T08:59:41;26.30;;;9.75;;
65387;SDS011;51992;53.528;49.474;2022-07-23T09:02:06;33.53;;;11.23;;
65387;SDS011;51992;53.528;49.474;2022-07-23T09:04:32;23.42;;;8.07;;
65387;SDS011;51992;53.528;49.474;2022-07-23T09:06:58;16.20;;;5.90;;
65387;SDS011;51992;53.528;49.474;2022-07-23T09:09:24;25.00;;;7.90;;
65387;SDS011;51992;53.528;49.474;2022-07-23T09:12:05;43.20;;;9.60;;
65387;SDS011;51992;53.528;49.474;2022-07-23T09:14:44;52.60;;;18.83;;
65387;SDS011;51992;53.528;49.474;2022-07-23T09:17:12;28.20;;;10.35;;
65387;SDS011;51992;53.528;49.474;2022-07-23T09:19:39;15.10;;;5.18;;
65387;SDS011;51992;53.528;49.474;2022-07-23T09:22:25;19.90;;;8.48;;
65387;SDS011;51992;53.528;49.474;2022-07-23T09:25:08;52.75;;;22.00;;
65387;SDS011;51992;53.528;49.474;2022-07-23T09:27:53;34.92;;;13.43;;
65387;SDS011;51992;53.528;49.474;2022-07-23T09:30:26;3.35;;;1.98;;
65387;SDS011;51992;53.528;49.474;2022-07-23T09:33:10;7.28;;;3.13;;
65387;SDS011;51992;53.528;49.474;2022-07-23T09:35:55;5.25;;;2.10;;
65387;SDS011;51992;53.528;49.474;2022-07-23T09:38:22;2.22;;;1.30;;
65387;SDS011;51992;53.528;49.474;2022-07-23T09:41:08;7.05;;;2.53;;
65387;SDS011;51992;53.528;49.474;2022-07-23T09:43:33;3.53;;;1.70;;
65387;SDS011;51992;53.528;49.474;2022-07-23T09:48:45;4.47;;;1.67;;
65387;SDS011;51992;53.528;49.474;2022-07-23T09:51:11;33.38;;;4.10;;
65387;SDS011;51992;53.528;49.474;2022-07-23T09:53:36;13.10;;;3.33;;
65387;SDS011;51992;53.528;49.474;2022-07-23T09:56:02;9.98;;;2.92;;
65387;SDS011;51992;53.528;49.474;2022-07-23T09:58:28;18.13;;;4.22;;
65387;SDS011;51992;53.528;49.474;2022-07-23T10:00:55;9.13;;;3.17;;
65387;SDS011;51992;53.528;49.474;2022-07-23T10:03:21;11.27;;;2.80;;
65387;SDS011;51992;53.528;49.474;2022-07-23T10:05:48;9.32;;;3.17;;
65387;SDS011;51992;53.528;49.474;2022-07-23T10:08:17;13.05;;;3.60;;
65387;SDS011;51992;53.528;49.474;2022-07-23T10:10:43;7.20;;;3.38;;
65387;SDS011;51992;53.528;49.474;2022-07-23T10:13:11;8.13;;;3.20;;
65387;SDS011;51992;53.528;49.474;2022-07-23T10:15:55;5.57;;;2.65;;
65387;SDS011;51992;53.528;49.474;2022-07-23T10:18:21;22.85;;;3.78;;
65387;SDS011;51992;53.528;49.474;2022-07-23T10:20:47;18.88;;;4.80;;
65387;SDS011;51992;53.528;49.474;2022-07-23T10:34:07;12.15;;;3.85;;
65387;SDS011;51992;53.528;49.474;2022-07-23T10:39:13;12.27;;;5.13;;
65387;SDS011;51992;53.528;49.474;2022-07-23T10:41:41;6.95;;;3.20;;
65387;SDS011;51992;53.528;49.474;2022-07-23T10:44:11;11.98;;;3.08;;
65387;SDS011;51992;53.528;49.474;2022-07-23T10:49:36;5.28;;;2.17;;
65387;SDS011;51992;53.528;49.474;2022-07-23T10:54:47;4.65;;;1.80;;
65387;SDS011;51992;53.528;49.474;2022-07-23T10:57:14;42.58;;;21.50;;
65387;SDS011;51992;53.528;49.474;2022-07-23T11:02:52;19.98;;;10.30;;
65387;SDS011;51992;53.528;49.474;2022-07-23T11:05:25;22.90;;;9.73;;
65387;SDS011;51992;53.528;49.474;2022-07-23T11:13:30;5.40;;;2.90;;
65387;SDS011;51992;53.528;49.474;2022-07-23T11:31:52;12.82;;;4.75;;
65387;SDS011;51992;53.528;49.474;2022-07-23T11:34:40;14.00;;;4.78;;
65387;SDS011;51992;53.528;49.474;2022-07-23T11:37:07;32.28;;;10.25;;
65387;SDS011;51992;53.528;49.474;2022-07-23T11:39:33;26.50;;;10.02;;
65387;SDS011;51992;53.528;49.474;2022-07-23T11:41:59;9.68;;;5.90;;
65387;SDS011;51992;53.528;49.474;2022-07-23T11:44:26;9.35;;;4.57;;
65387;SDS011;51992;53.528;49.474;2022-07-23T11:46:59;10.00;;;3.95;;
65387;SDS011;51992;53.528;49.474;2022-07-23T11:49:25;8.82;;;4.78;;
65387;SDS011;51992;53.528;49.474;2022-07-23T11:54:32;7.38;;;4.78;;
65387;SDS011;51992;53.528;49.474;2022-07-23T11:56:58;11.90;;;5.35;;
65387;SDS011;51992;53.528;49.474;2022-07-23T11:59:25;23.67;;;11.38;;
65387;SDS011;51992;53.528;49.474;2022-07-23T12:04:45;38.03;;;16.58;;
65387;SDS011;51992;53.528;49.474;2022-07-23T12:07:23;38.17;;;15.65;;
65387;SDS011;51992;53.528;49.474;2022-07-23T12:09:48;28.17;;;11.90;;
65387;SDS011;51992;53.528;49.474;2022-07-23T12:12:22;25.85;;;9.63;;
65387;SDS011;51992;53.528;49.474;2022-07-23T12:14:52;21.63;;;8.77;;
65387;SDS011;51992;53.528;49.474;2022-07-23T12:17:21;11.18;;;5.28;;
65387;SDS011;51992;53.528;49.474;2022-07-23T12:19:46;14.35;;;5.28;;
65387;SDS011;51992;53.528;49.474;2022-07-23T12:22:18;16.83;;;5.63;;
65387;SDS011;51992;53.528;49.474;2022-07-23T12:25:03;14.77;;;6.10;;
65387;SDS011;51992;53.528;49.474;2022-07-23T12:27:30;18.60;;;5.63;;
65387;SDS011;51992;53.528;49.474;2022-07-23T12:29:55;22.63;;;7.65;;
65387;SDS011;51992;53.528;49.474;2022-07-23T12:32:23;21.00;;;7.53;;
65387;SDS011;51992;53.528;49.474;2022-07-23T12:34:51;27.08;;;11.95;;
65387;SDS011;51992;53.528;49.474;2022-07-23T12:37:33;36.78;;;19.25;;
65387;SDS011;51992;53.528;49.474;2022-07-23T12:40:42;33.70;;;16.15;;
65387;SDS011;51992;53.528;49.474;2022-07-23T12:42:53;33.58;;;17.30;;
65387;SDS011;51992;53.528;49.474;2022-07-23T12:45:22;38.13;;;17.88;;
65387;SDS011;51992;53.528;49.474;2022-07-23T12:55:30;5.28;;;2.78;;
65387;SDS011;51992;53.528;49.474;2022-07-23T12:58:02;6.82;;;2.70;;
65387;SDS011;51992;53.528;49.474;2022-07-23T13:00:30;5.22;;;2.50;;
65387;SDS011;51992;53.528;49.474;2022-07-23T13:02:56;8.00;;;1.98;;
65387;SDS011;51992;53.528;49.474;2022-07-23T13:05:24;9.32;;;2.70;;
65387;SDS011;51992;53.528;49.474;2022-07-23T13:07:50;8.88;;;3.30;;
65387;SDS011;51992;53.528;49.474;2022-07-23T13:10:16;2.25;;;2.00;;
65387;SDS011;51992;53.528;49.474;2022-07-23T13:12:41;35.58;;;12.52;;
65387;SDS011;51992;53.528;49.474;2022-07-23T13:15:07;29.77;;;11.32;;
65387;SDS011;51992;53.528;49.474;2022-07-23T13:17:33;68.70;;;24.63;;
65387;SDS011;51992;53.528;49.474;2022-07-23T13:19:59;20.25;;;7.88;;
65387;SDS011;51992;53.528;49.474;2022-07-23T13:22:24;47.67;;;16.40;;
65387;SDS011;51992;53.528;49.474;2022-07-23T13:24:50;46.72;;;17.58;;
65387;SDS011;51992;53.528;49.474;2022-07-23T13:27:16;44.10;;;17.50;;
65387;SDS011;51992;53.528;49.474;2022-07-23T13:29:42;45.58;;;16.83;;
65387;SDS011;51992;53.528;49.474;2022-07-23T13:32:07;43.05;;;15.68;;
65387;SDS011;51992;53.528;49.474;2022-07-23T13:34:33;45.28;;;16.75;;
65387;SDS011;51992;53.528;49.474;2022-07-23T13:36:59;52.60;;;21.00;;
65387;SDS011;51992;53.528;49.474;2022-07-23T13:39:25;53.47;;;22.65;;
65387;SDS011;51992;53.528;49.474;2022-07-23T13:41:51;61.35;;;19.65;;
65387;SDS011;51992;53.528;49.474;2022-07-23T13:44:17;54.08;;;19.05;;
65387;SDS011;51992;53.528;49.474;2022-07-23T13:46:43;65.45;;;21.23;;
65387;SDS011;51992;53.528;49.474;2022-07-23T13:49:09;49.67;;;18.70;;
65387;SDS011;51992;53.528;49.474;2022-07-23T13:51:35;28.88;;;10.10;;
65387;SDS011;51992;53.528;49.474;2022-07-23T13:54:01;24.08;;;10.18;;
65387;SDS011;51992;53.528;49.474;2022-07-23T13:56:28;22.02;;;8.68;;
65387;SDS011;51992;53.528;49.474;2022-07-23T13:58:53;27.92;;;10.63;;
65387;SDS011;51992;53.528;49.474;2022-07-23T14:01:22;42.08;;;15.52;;
65387;SDS011;51992;53.528;49.474;2022-07-23T14:03:48;40.08;;;14.02;;
65387;SDS011;51992;53.528;49.474;2022-07-23T14:06:13;31.45;;;11.25;;
65387;SDS011;51992;53.528;49.474;2022-07-23T14:08:39;26.00;;;10.35;;
65387;SDS011;51992;53.528;49.474;2022-07-23T14:11:05;28.65;;;10.00;;
65387;SDS011;51992;53.528;49.474;2022-07-23T14:13:30;31.42;;;12.25;;
65387;SDS011;51992;53.528;49.474;2022-07-23T14:15:56;7.68;;;3.45;;
65387;SDS011;51992;53.528;49.474;2022-07-23T14:18:22;20.05;;;8.93;;
65387;SDS011;51992;53.528;49.474;2022-07-23T14:20:47;39.10;;;14.82;;
65387;SDS011;51992;53.528;49.474;2022-07-23T14:23:13;30.15;;;11.40;;
65387;SDS011;51992;53.528;49.474;2022-07-23T14:25:39;28.95;;;10.60;;
65387;SDS011;51992;53.528;49.474;2022-07-23T14:28:05;36.38;;;13.23;;
65387;SDS011;51992;53.528;49.474;2022-07-23T14:30:30;37.90;;;14.18;;
65387;SDS011;51992;53.528;49.474;2022-07-23T14:32:56;34.17;;;11.63;;
65387;SDS011;51992;53.528;49.474;2022-07-23T14:35:22;28.42;;;9.75;;
65387;SDS011;51992;53.528;49.474;2022-07-23T14:37:49;30.15;;;8.95;;
65387;SDS011;51992;53.528;49.474;2022-07-23T14:40:14;33.85;;;11.07;;
65387;SDS011;51992;53.528;49.474;2022-07-23T14:42:40;37.95;;;14.40;;
65387;SDS011;51992;53.528;49.474;2022-07-23T14:45:06;42.25;;;13.75;;
65387;SDS011;51992;53.528;49.474;2022-07-23T14:47:32;43.65;;;15.38;;
65387;SDS011;51992;53.528;49.474;2022-07-23T14:49:57;46.47;;;16.52;;
65387;SDS011;51992;53.528;49.474;2022-07-23T14:52:26;41.10;;;14.30;;
65387;SDS011;51992;53.528;49.474;2022-07-23T14:54:52;43.97;;;13.82;;
65387;SDS011;51992;53.528;49.474;2022-07-23T14:57:17;36.33;;;14.10;;
65387;SDS011;51992;53.528;49.474;2022-07-23T14:59:43;30.17;;;11.30;;
65387;SDS011;51992;53.528;49.474;2022-07-23T15:02:09;26.73;;;10.13;;
65387;SDS011;51992;53.528;49.474;2022-07-23T15:04:35;27.13;;;11.05;;
65387;SDS011;51992;53.528;49.474;2022-07-23T15:07:00;25.35;;;10.65;;
65387;SDS011;51992;53.528;49.474;2022-07-23T15:09:27;33.35;;;10.18;;
65387;SDS011;51992;53.528;49.474;2022-07-23T15:11:52;35.53;;;11.77;;
65387;SDS011;51992;53.528;49.474;2022-07-23T15:14:18;27.60;;;9.55;;
65387;SDS011;51992;53.528;49.474;2022-07-23T15:16:47;27.20;;;7.95;;
65387;SDS011;51992;53.528;49.474;2022-07-23T15:19:13;26.02;;;8.18;;
65387;SDS011;51992;53.528;49.474;2022-07-23T15:21:38;21.20;;;7.10;;
65387;SDS011;51992;53.528;49.474;2022-07-23T15:24:04;28.77;;;7.80;;